Time;durP1;ratioP1;P1;durP2;ratioP2;P2;SDS_P1;SDS_P2;PMS_P1;PMS_P2;Temp;Humidity;BMP_temperature;BMP_pressure;BME280_temperature;BME280_humidity;BME280_pressure;Samples;Min_cycle;Max_cycle;Signal;HPM_P1;HPM_P2
2023/08/24 00:01:58;;;;;;;6.90;6.20;;;;;;;23.27;nan;99506.78;5036738;28;20202;-77
2023/08/24 00:04:24;;;;;;;7.20;6.50;;;;;;;23.31;nan;99501.91;5041088;28;20227;-78
2023/08/24 00:06:49;;;;;;;7.97;7.17;;;;;;;23.36;nan;99505.69;5034644;28;20426;-79
2023/08/24 00:09:15;;;;;;;6.30;5.80;;;;;;;23.42;nan;99506.81;5036214;28;20262;-77
2023/08/24 00:11:40;;;;;;;6.37;5.87;;;;;;;23.44;nan;99501.25;5039840;28;20208;-78
2023/08/24 00:14:06;;;;;;;8.93;5.90;;;;;;;23.46;nan;99504.59;5035938;28;20608;-77
2023/08/24 00:16:32;;;;;;;6.30;5.70;;;;;;;23.44;nan;99510.16;5036087;28;20213;-78
2023/08/24 00:18:58;;;;;;;5.90;5.37;;;;;;;23.39;nan;99507.19;5037051;28;20288;-77
2023/08/24 00:21:23;;;;;;;7.67;6.87;;;;;;;23.28;nan;99502.28;5037261;28;21187;-77
2023/08/24 00:23:52;;;;;;;6.63;6.00;;;;;;;23.14;nan;99498.53;5036997;28;20481;-77
2023/08/24 00:26:18;;;;;;;7.67;5.60;;;;;;;23.06;nan;99499.47;5038181;28;20236;-77
2023/08/24 00:28:44;;;;;;;6.80;6.20;;;;;;;22.99;nan;99493.16;5036556;28;20484;-77
2023/08/24 00:31:09;;;;;;;6.70;6.20;;;;;;;22.94;nan;99482.94;5036018;28;20193;-77
2023/08/24 00:33:35;;;;;;;6.60;5.87;;;;;;;22.92;nan;99481.44;5038277;28;20464;-79
2023/08/24 00:36:01;;;;;;;8.40;6.18;;;;;;;22.94;nan;99474.06;5036028;28;20513;-79
2023/08/24 00:38:27;;;;;;;6.97;6.13;;;;;;;22.95;nan;99473.91;5035714;28;20201;-78
2023/08/24 00:40:53;;;;;;;6.80;6.30;;;;;;;22.90;nan;99470.06;5019309;28;20427;-79
2023/08/24 00:43:23;;;;;;;6.73;6.03;;;;;;;22.81;nan;99463.13;5020385;28;20189;-77
2023/08/24 00:45:51;;;;;;;6.40;5.87;;;;;;;22.69;nan;99465.41;5034294;28;20460;-79
2023/08/24 00:48:18;;;;;;;7.33;6.63;;;;;;;22.62;nan;99470.63;5017514;28;20477;-78
2023/08/24 00:50:43;;;;;;;8.30;6.70;;;;;;;22.51;nan;99460.34;5018531;28;20435;-78
2023/08/24 00:53:10;;;;;;;6.53;6.03;;;;;;;22.39;nan;99456.44;5032667;28;20452;-78
2023/08/24 00:55:35;;;;;;;7.60;6.90;;;;;;;22.27;nan;99461.34;5016928;28;20504;-77
2023/08/24 00:58:02;;;;;;;7.00;6.30;;;;;;;22.20;nan;99453.19;5034888;28;21456;-79
2023/08/24 01:00:28;;;;;;;7.20;6.60;;;;;;;22.14;nan;99455.69;5036098;28;20284;-79
2023/08/24 01:02:54;;;;;;;7.27;6.67;;;;;;;22.07;nan;99451.06;5021074;28;20550;-79
2023/08/24 01:05:19;;;;;;;6.90;6.30;;;;;;;22.04;nan;99445.25;5034028;28;20751;-79
2023/08/24 01:07:45;;;;;;;8.50;7.77;;;;;;;22.02;nan;99449.91;5033578;28;20298;-79
2023/08/24 01:10:11;;;;;;;7.03;6.30;;;;;;;21.98;nan;99443.25;5015450;28;20212;-78
2023/08/24 01:12:44;;;;;;;6.80;6.20;;;;;;;21.98;nan;99438.75;5015055;28;20205;-80
2023/08/24 01:15:15;;;;;;;6.23;5.40;;;;;;;22.01;nan;99438.41;5034635;28;20972;-77
2023/08/24 01:17:43;;;;;;;7.23;6.53;;;;;;;22.05;nan;99428.16;5017996;28;20470;-80
2023/08/24 01:20:10;;;;;;;6.67;6.00;;;;;;;22.10;nan;99434.66;5034645;28;20810;-77
2023/08/24 01:23:04;;;;;;;10.20;6.83;;;;;;;22.16;nan;99430.44;5035451;28;20456;-80
2023/08/24 01:25:40;;;;;;;7.03;6.43;;;;;;;22.18;nan;99430.28;5032919;28;20471;-77
2023/08/24 01:28:08;;;;;;;7.80;7.10;;;;;;;22.13;nan;99432.66;5035952;28;21382;-80
2023/08/24 01:30:35;;;;;;;8.37;7.67;;;;;;;22.05;nan;99433.53;5039398;28;20481;-77
2023/08/24 01:33:03;;;;;;;6.47;5.67;;;;;;;21.94;nan;99441.94;5015680;28;20453;-78
2023/08/24 01:35:28;;;;;;;7.47;6.70;;;;;;;21.86;nan;99450.84;5018142;28;20541;-78
2023/08/24 01:37:54;;;;;;;8.67;7.03;;;;;;;21.79;nan;99453.38;5030879;28;20430;-78
2023/08/24 01:40:49;;;;;;;7.73;6.87;;;;;;;21.74;nan;99449.53;5032725;28;20290;-79
2023/08/24 01:43:16;;;;;;;5.90;5.40;;;;;;;21.68;nan;99458.25;5032475;28;20816;-77
2023/08/24 01:45:43;;;;;;;7.10;6.40;;;;;;;21.68;nan;99447.56;5033068;28;21018;-79
2023/08/24 01:48:09;;;;;;;8.80;7.30;;;;;;;21.68;nan;99435.03;5034173;28;20481;-79
2023/08/24 01:50:35;;;;;;;8.37;6.33;;;;;;;21.72;nan;99430.19;5027991;28;20437;-79
2023/08/24 01:53:01;;;;;;;9.13;6.93;;;;;;;21.78;nan;99432.97;5027438;28;20459;-77
2023/08/24 01:55:27;;;;;;;8.20;7.40;;;;;;;21.83;nan;99430.63;5032201;28;20435;-78
2023/08/24 01:57:54;;;;;;;9.40;6.57;;;;;;;21.91;nan;99420.91;5013634;28;20488;-79
2023/08/24 02:00:20;;;;;;;7.90;7.20;;;;;;;21.98;nan;99421.84;5009802;28;20843;-78
2023/08/24 02:02:46;;;;;;;6.70;6.17;;;;;;;22.04;nan;99422.00;5013182;28;20708;-78
2023/08/24 02:05:11;;;;;;;6.70;6.20;;;;;;;22.12;nan;99422.97;4999233;28;20455;-80
2023/08/24 02:07:39;;;;;;;6.87;6.27;;;;;;;22.13;nan;99429.97;5030794;28;20300;-78
2023/08/24 02:10:05;;;;;;;7.47;6.80;;;;;;;22.15;nan;99428.78;5031507;28;20193;-78
2023/08/24 02:12:31;;;;;;;6.47;5.90;;;;;;;22.19;nan;99426.59;5030789;28;21297;-77
2023/08/24 02:14:56;;;;;;;6.90;6.30;;;;;;;22.23;nan;99431.44;5011392;28;20428;-78
2023/08/24 02:17:21;;;;;;;7.50;6.80;;;;;;;22.27;nan;99422.03;5021526;28;20220;-78
2023/08/24 02:19:47;;;;;;;6.60;6.10;;;;;;;22.33;nan;99417.81;5011294;28;20202;-79
2023/08/24 02:22:13;;;;;;;12.50;6.10;;;;;;;22.33;nan;99420.50;5031619;28;20611;-77
2023/08/24 02:24:39;;;;;;;6.87;6.37;;;;;;;22.30;nan;99429.72;5032452;28;20446;-78
2023/08/24 02:27:04;;;;;;;6.23;5.50;;;;;;;22.33;nan;99428.50;5003917;28;20241;-78
2023/08/24 02:29:30;;;;;;;6.50;5.70;;;;;;;22.35;nan;99428.34;5015268;28;21091;-77
2023/08/24 02:31:55;;;;;;;7.77;7.00;;;;;;;22.38;nan;99425.31;5011756;28;20197;-77
2023/08/24 02:34:21;;;;;;;5.93;5.43;;;;;;;22.38;nan;99431.50;5017504;28;20198;-78
2023/08/24 02:36:46;;;;;;;6.43;5.93;;;;;;;22.35;nan;99426.50;4995399;28;20252;-78
2023/08/24 02:39:11;;;;;;;6.97;6.30;;;;;;;22.30;nan;99420.84;5017320;28;20538;-78
2023/08/24 02:41:37;;;;;;;7.07;6.47;;;;;;;22.26;nan;99417.69;5015362;28;20249;-77
2023/08/24 02:44:03;;;;;;;8.83;6.53;;;;;;;22.25;nan;99424.06;5016609;28;20502;-77
2023/08/24 02:46:28;;;;;;;9.03;5.90;;;;;;;22.25;nan;99417.88;5015611;28;20854;-77
2023/08/24 02:48:54;;;;;;;7.20;6.37;;;;;;;22.26;nan;99415.03;5014078;28;20473;-78
2023/08/24 02:51:22;;;;;;;8.07;6.40;;;;;;;22.28;nan;99402.31;5015854;28;20203;-77
2023/08/24 02:53:47;;;;;;;6.87;6.27;;;;;;;22.26;nan;99398.97;5016670;28;21001;-77
2023/08/24 02:56:12;;;;;;;6.53;5.83;;;;;;;22.28;nan;99404.16;4978732;28;20455;-77
2023/08/24 02:58:38;;;;;;;8.73;7.93;;;;;;;22.32;nan;99408.13;5012358;28;20851;-77
2023/08/24 03:01:08;;;;;;;6.57;5.97;;;;;;;22.34;nan;99410.63;4998791;28;20204;-78
2023/08/24 03:03:36;;;;;;;9.70;6.67;;;;;;;22.36;nan;99400.56;4998092;28;20475;-77
2023/08/24 03:06:07;;;;;;;7.40;5.90;;;;;;;22.37;nan;99394.22;5015914;28;20526;-77
2023/08/24 03:08:34;;;;;;;6.67;5.43;;;;;;;22.39;nan;99386.84;5016231;28;21077;-78
2023/08/24 03:11:01;;;;;;;5.57;5.17;;;;;;;22.39;nan;99384.19;5017077;28;20469;-77
2023/08/24 03:13:28;;;;;;;6.20;5.60;;;;;;;22.38;nan;99385.16;5003901;28;20916;-78
2023/08/24 03:15:54;;;;;;;6.93;5.80;;;;;;;22.37;nan;99368.28;5000467;28;20457;-76
2023/08/24 03:18:19;;;;;;;5.90;5.30;;;;;;;22.37;nan;99368.28;5000424;28;20455;-79
2023/08/24 03:20:46;;;;;;;6.33;5.80;;;;;;;22.34;nan;99357.13;4999905;28;20298;-78
2023/08/24 03:23:14;;;;;;;6.80;6.27;;;;;;;22.31;nan;99364.50;5014179;28;20198;-78
2023/08/24 03:25:41;;;;;;;7.13;6.40;;;;;;;22.28;nan;99367.53;5003584;28;20452;-77
2023/08/24 03:28:08;;;;;;;6.80;6.00;;;;;;;22.25;nan;99370.56;5001908;28;20499;-78
2023/08/24 03:30:36;;;;;;;5.90;5.40;;;;;;;22.19;nan;99379.28;5021698;28;20826;-78
2023/08/24 03:33:02;;;;;;;17.63;6.80;;;;;;;22.08;nan;99368.97;5014344;28;20442;-79
2023/08/24 03:35:30;;;;;;;7.50;6.40;;;;;;;21.97;nan;99367.53;5009508;28;20440;-78
2023/08/24 03:37:56;;;;;;;9.20;6.50;;;;;;;21.87;nan;99350.88;5017116;28;20202;-79
2023/08/24 03:40:23;;;;;;;13.33;7.93;;;;;;;21.75;nan;99354.97;4992189;28;20428;-78
2023/08/24 03:42:48;;;;;;;8.80;6.53;;;;;;;21.69;nan;99347.66;5014826;28;21019;-79
2023/08/24 03:45:14;;;;;;;7.53;6.83;;;;;;;21.65;nan;99348.00;5000033;28;20193;-78
2023/08/24 03:47:39;;;;;;;6.50;5.90;;;;;;;21.66;nan;99354.19;4998500;28;20208;-77
2023/08/24 03:50:05;;;;;;;8.63;6.90;;;;;;;21.68;nan;99349.47;5021356;28;20212;-77
2023/08/24 03:52:31;;;;;;;6.77;6.17;;;;;;;21.65;nan;99345.31;5000750;28;20211;-78
2023/08/24 03:54:57;;;;;;;9.07;6.40;;;;;;;21.62;nan;99342.16;5003282;28;20418;-77
2023/08/24 03:57:23;;;;;;;7.20;6.60;;;;;;;21.56;nan;99333.03;4985304;28;20431;-79
2023/08/24 03:59:48;;;;;;;6.77;6.10;;;;;;;21.52;nan;99326.38;5017899;28;20588;-79
2023/08/24 04:02:15;;;;;;;8.90;7.97;;;;;;;21.49;nan;99328.53;5007441;28;20696;-81
2023/08/24 04:04:41;;;;;;;7.00;6.30;;;;;;;21.47;nan;99328.72;5007569;28;20427;-82
2023/08/24 04:07:06;;;;;;;7.30;6.70;;;;;;;21.49;nan;99320.53;5021959;28;20292;-81
2023/08/24 04:09:32;;;;;;;10.23;6.43;;;;;;;21.51;nan;99314.00;5031870;28;20467;-81
2023/08/24 04:11:57;;;;;;;9.00;6.20;;;;;;;21.54;nan;99323.50;5031978;28;20617;-81
2023/08/24 04:14:22;;;;;;;7.43;6.80;;;;;;;21.55;nan;99317.16;5034351;28;20204;-82
2023/08/24 04:16:48;;;;;;;18.97;9.77;;;;;;;21.55;nan;99319.81;5015354;28;20284;-81
2023/08/24 04:19:13;;;;;;;11.87;6.53;;;;;;;21.51;nan;99324.69;5016717;28;20225;-81
2023/08/24 04:21:39;;;;;;;8.37;6.33;;;;;;;21.48;nan;99335.72;5027046;28;20202;-81
2023/08/24 04:24:04;;;;;;;11.20;6.57;;;;;;;21.39;nan;99331.44;5026738;28;20277;-80
2023/08/24 04:26:30;;;;;;;7.47;6.20;;;;;;;21.31;nan;99334.94;5022636;28;20233;-80
2023/08/24 04:28:56;;;;;;;16.50;8.20;;;;;;;21.27;nan;99348.81;5022103;28;20263;-81
2023/08/24 04:31:21;;;;;;;8.83;7.10;;;;;;;21.24;nan;99338.47;5022246;28;20437;-80
2023/08/24 04:33:47;;;;;;;8.80;7.00;;;;;;;21.26;nan;99329.28;5021468;28;20205;-80
2023/08/24 04:36:12;;;;;;;7.60;6.60;;;;;;;21.29;nan;99328.94;5020245;28;20219;-82
2023/08/24 04:38:38;;;;;;;8.03;7.13;;;;;;;21.29;nan;99339.63;5021650;28;20201;-82
2023/08/24 04:41:07;;;;;;;10.63;7.50;;;;;;;21.31;nan;99328.78;5020066;28;20209;-81
2023/08/24 04:43:32;;;;;;;7.30;6.60;;;;;;;21.35;nan;99335.44;5020681;28;20209;-81
2023/08/24 04:45:58;;;;;;;9.83;6.93;;;;;;;21.38;nan;99325.25;5017027;28;20450;-81
2023/08/24 04:48:25;;;;;;;8.70;6.70;;;;;;;21.42;nan;99336.44;5024080;28;20976;-80
2023/08/24 04:50:53;;;;;;;8.53;7.73;;;;;;;21.49;nan;99325.88;5022785;28;20194;-80
2023/08/24 04:53:19;;;;;;;7.60;6.80;;;;;;;21.51;nan;99335.38;5019897;28;20450;-80
2023/08/24 04:55:46;;;;;;;9.30;7.43;;;;;;;21.52;nan;99337.06;5018691;28;20466;-81
2023/08/24 04:58:13;;;;;;;9.47;7.33;;;;;;;21.55;nan;99335.84;5020309;28;21159;-81
2023/08/24 05:00:39;;;;;;;7.80;7.10;;;;;;;21.56;nan;99342.88;5024675;28;20484;-80
2023/08/24 05:03:06;;;;;;;8.87;8.07;;;;;;;21.58;nan;99347.03;5025304;28;21143;-82
2023/08/24 05:05:32;;;;;;;7.72;7.03;;;;;;;21.60;nan;99354.88;5025812;28;20454;-81
2023/08/24 05:07:59;;;;;;;9.43;8.47;;;;;;;21.63;nan;99352.69;5025521;28;20579;-82
2023/08/24 05:10:25;;;;;;;9.00;6.97;;;;;;;21.66;nan;99343.50;5033021;28;20431;-81
2023/08/24 05:12:50;;;;;;;8.63;7.73;;;;;;;21.70;nan;99344.81;5032504;28;21036;-81
2023/08/24 05:15:16;;;;;;;8.53;7.57;;;;;;;21.74;nan;99354.16;5029896;28;20516;-82
2023/08/24 05:17:42;;;;;;;7.40;6.70;;;;;;;21.82;nan;99356.78;5030607;28;20205;-83
2023/08/24 05:20:10;;;;;;;8.70;7.90;;;;;;;21.92;nan;99355.69;5025670;28;20276;-81
2023/08/24 05:22:36;;;;;;;8.80;7.83;;;;;;;22.01;nan;99358.16;5022117;28;20604;-82
2023/08/24 05:25:01;;;;;;;9.47;8.40;;;;;;;22.08;nan;99353.75;5024099;28;20975;-81
2023/08/24 05:27:27;;;;;;;8.20;7.40;;;;;;;22.15;nan;99353.06;5034492;28;20452;-81
2023/08/24 05:29:52;;;;;;;8.23;7.43;;;;;;;22.18;nan;99353.56;5033502;28;20211;-82
2023/08/24 05:32:18;;;;;;;8.47;7.67;;;;;;;22.18;nan;99360.72;5005269;28;20209;-81
2023/08/24 05:34:45;;;;;;;7.77;6.73;;;;;;;22.15;nan;99367.25;5037603;28;20224;-81
2023/08/24 05:37:10;;;;;;;7.07;6.37;;;;;;;22.16;nan;99362.72;5038948;28;20211;-82
2023/08/24 05:39:36;;;;;;;8.77;7.77;;;;;;;22.16;nan;99358.22;5038603;28;20456;-82
2023/08/24 05:42:01;;;;;;;8.70;7.80;;;;;;;22.19;nan;99365.06;5038999;28;20289;-81
2023/08/24 05:44:27;;;;;;;8.87;8.13;;;;;;;22.23;nan;99367.22;5036813;28;20197;-82
2023/08/24 05:46:52;;;;;;;7.90;7.03;;;;;;;22.28;nan;99364.03;5040987;28;20221;-81
2023/08/24 05:49:18;;;;;;;9.20;7.10;;;;;;;22.31;nan;99372.50;5033651;28;20211;-81
2023/08/24 05:51:43;;;;;;;8.50;7.57;;;;;;;22.33;nan;99374.16;5034014;28;20210;-83
2023/08/24 05:54:09;;;;;;;10.00;7.80;;;;;;;22.27;nan;99379.22;5035926;28;20190;-81
2023/08/24 05:56:34;;;;;;;7.00;6.30;;;;;;;22.22;nan;99380.78;5029909;28;20577;-81
2023/08/24 05:59:00;;;;;;;8.80;8.00;;;;;;;22.20;nan;99383.63;5037120;28;20704;-82
2023/08/24 06:01:29;;;;;;;7.53;6.30;;;;;;;22.21;nan;99389.81;5037918;28;20673;-81
2023/08/24 06:03:54;;;;;;;9.47;8.00;;;;;;;22.19;nan;99384.63;5021347;28;20717;-81
2023/08/24 06:06:19;;;;;;;9.07;8.27;;;;;;;22.22;nan;99378.91;5038865;28;20488;-82
2023/08/24 06:08:45;;;;;;;8.70;7.83;;;;;;;22.23;nan;99380.59;5040620;28;20218;-82
2023/08/24 06:11:10;;;;;;;8.73;8.03;;;;;;;22.28;nan;99380.06;5041230;28;20715;-82
2023/08/24 06:13:36;;;;;;;12.93;7.83;;;;;;;22.37;nan;99379.00;5042058;28;20206;-82
2023/08/24 06:16:01;;;;;;;9.00;7.90;;;;;;;22.47;nan;99382.25;5031077;28;20315;-81
2023/08/24 06:18:27;;;;;;;10.40;9.30;;;;;;;22.58;nan;99385.53;5038057;28;20201;-82
2023/08/24 06:20:53;;;;;;;8.57;7.73;;;;;;;22.69;nan;99398.47;5036606;28;20205;-82
2023/08/24 06:23:19;;;;;;;7.80;7.20;;;;;;;22.79;nan;99392.84;5038844;28;20448;-82
2023/08/24 06:25:45;;;;;;;9.27;8.40;;;;;;;22.87;nan;99403.47;5037899;28;20442;-82
2023/08/24 06:28:13;;;;;;;8.30;7.50;;;;;;;22.95;nan;99403.41;5032423;28;20308;-83
2023/08/24 06:30:40;;;;;;;8.53;7.73;;;;;;;23.01;nan;99402.72;5033893;28;20579;-81
2023/08/24 06:33:07;;;;;;;10.20;9.30;;;;;;;23.05;nan;99405.88;5036872;28;20555;-82
2023/08/24 06:35:33;;;;;;;9.03;8.23;;;;;;;23.05;nan;99409.38;5039353;28;20424;-82
2023/08/24 06:37:58;;;;;;;9.93;7.77;;;;;;;23.06;nan;99404.84;5028784;28;20435;-83
2023/08/24 06:40:24;;;;;;;9.93;9.03;;;;;;;23.07;nan;99406.53;5029164;28;20427;-83
2023/08/24 06:42:49;;;;;;;16.10;8.17;;;;;;;23.05;nan;99403.19;5030719;28;20792;-83
2023/08/24 06:45:16;;;;;;;8.90;8.10;;;;;;;23.04;nan;99401.53;5029613;28;20258;-83
2023/08/24 06:47:42;;;;;;;8.33;7.53;;;;;;;23.03;nan;99403.34;5031715;28;20347;-84
2023/08/24 06:50:08;;;;;;;9.50;8.50;;;;;;;23.06;nan;99407.50;5034361;28;20550;-82
2023/08/24 06:52:33;;;;;;;9.37;8.37;;;;;;;23.06;nan;99410.19;5033667;28;20198;-83
2023/08/24 06:54:59;;;;;;;10.00;9.03;;;;;;;23.06;nan;99413.72;5031986;28;20782;-84
2023/08/24 06:57:25;;;;;;;10.50;9.50;;;;;;;23.13;nan;99413.81;5034520;28;20221;-82
2023/08/24 06:59:51;;;;;;;10.53;9.63;;;;;;;23.24;nan;99408.00;5037070;28;20419;-83
2023/08/24 07:02:17;;;;;;;10.60;9.50;;;;;;;23.33;nan;99398.00;5036550;28;20205;-82
2023/08/24 07:04:43;;;;;;;14.07;9.50;;;;;;;23.48;nan;99393.47;5034678;28;20201;-83
2023/08/24 07:07:09;;;;;;;11.33;10.23;;;;;;;23.57;nan;99402.25;5034582;28;21365;-82
2023/08/24 07:09:35;;;;;;;11.50;9.63;;;;;;;23.57;nan;99395.06;5036852;28;20483;-83
2023/08/24 07:12:06;;;;;;;11.90;10.80;;;;;;;23.61;nan;99398.19;5036608;28;20179;-83
2023/08/24 07:14:33;;;;;;;12.13;10.93;;;;;;;23.64;nan;99393.28;5037189;28;20439;-82
2023/08/24 07:16:58;;;;;;;10.77;9.70;;;;;;;23.73;nan;99382.47;5040332;28;20466;-83
2023/08/24 07:19:24;;;;;;;10.23;9.43;;;;;;;24.11;nan;99388.47;5038684;28;20502;-84
2023/08/24 07:21:49;;;;;;;11.60;9.87;;;;;;;24.80;nan;99392.44;5037762;28;20191;-83
2023/08/24 07:24:16;;;;;;;11.43;10.13;;;;;;;25.54;nan;99394.56;5040875;28;20236;-83
2023/08/24 07:26:42;;;;;;;9.90;9.00;;;;;;;26.23;nan;99389.03;5040540;28;20217;-83
2023/08/24 07:29:08;;;;;;;14.30;8.80;;;;;;;26.73;nan;99383.28;5023543;28;20448;-83
2023/08/24 07:31:33;;;;;;;11.23;10.23;;;;;;;27.09;nan;99384.72;5040191;28;20459;-83
2023/08/24 07:33:58;;;;;;;8.80;8.10;;;;;;;27.56;nan;99372.75;5040589;28;20455;-83
2023/08/24 07:36:24;;;;;;;10.73;9.63;;;;;;;28.21;nan;99371.81;5040927;28;20978;-83
2023/08/24 07:38:50;;;;;;;9.97;9.10;;;;;;;28.60;nan;99369.91;5043456;28;20455;-83
2023/08/24 07:41:18;;;;;;;9.40;8.50;;;;;;;28.84;nan;99363.66;5040934;28;20501;-83
2023/08/24 07:43:43;;;;;;;8.30;7.50;;;;;;;28.81;nan;99365.97;5041460;28;20210;-83
2023/08/24 07:46:09;;;;;;;12.20;8.90;;;;;;;28.60;nan;99373.44;5043544;28;20883;-83
2023/08/24 07:48:35;;;;;;;8.40;7.70;;;;;;;28.57;nan;99368.47;5037452;28;20214;-83
2023/08/24 07:51:00;;;;;;;9.00;8.10;;;;;;;28.41;nan;99367.13;5040993;28;20570;-83
2023/08/24 07:53:26;;;;;;;9.03;8.27;;;;;;;28.24;nan;99374.09;5039886;28;20202;-82
2023/08/24 07:55:53;;;;;;;16.13;7.90;;;;;;;28.04;nan;99379.63;5038468;28;20232;-82
2023/08/24 07:58:19;;;;;;;9.43;8.23;;;;;;;27.78;nan;99385.94;5038703;28;20190;-82
2023/08/24 08:00:46;;;;;;;8.23;7.47;;;;;;;27.58;nan;99384.19;5038105;28;20497;-82
2023/08/24 08:03:11;;;;;;;7.60;7.07;;;;;;;27.48;nan;99383.78;5034683;28;21050;-83
2023/08/24 08:05:37;;;;;;;9.53;8.73;;;;;;;27.36;nan;99380.13;5038678;28;20487;-83
2023/08/24 08:08:02;;;;;;;8.27;7.57;;;;;;;27.33;nan;99380.53;5037405;28;20198;-82
2023/08/24 08:10:28;;;;;;;8.50;7.23;;;;;;;27.44;nan;99377.19;5038385;28;20253;-82
2023/08/24 08:12:53;;;;;;;8.40;7.60;;;;;;;27.52;nan;99379.63;5036687;28;20233;-83
2023/08/24 08:15:19;;;;;;;7.03;6.53;;;;;;;27.63;nan;99377.31;5034163;28;20511;-82
2023/08/24 08:17:44;;;;;;;8.43;7.63;;;;;;;27.64;nan;99382.47;5039306;28;20213;-82
2023/08/24 08:20:11;;;;;;;9.77;8.87;;;;;;;27.66;nan;99374.19;5039832;28;20205;-82
2023/08/24 08:22:38;;;;;;;8.73;7.83;;;;;;;27.91;nan;99364.31;5041911;28;20221;-82
2023/08/24 08:25:05;;;;;;;8.23;7.40;;;;;;;28.22;nan;99355.41;5041071;28;20498;-82
2023/08/24 08:27:30;;;;;;;8.93;8.20;;;;;;;28.72;nan;99357.31;5037502;28;20499;-83
2023/08/24 08:29:56;;;;;;;7.97;7.27;;;;;;;29.01;nan;99361.19;5041198;28;20467;-82
2023/08/24 08:32:22;;;;;;;9.33;7.90;;;;;;;29.43;nan;99355.16;5040377;28;20601;-83
2023/08/24 08:34:47;;;;;;;8.30;7.50;;;;;;;29.92;nan;99350.56;5028200;28;20186;-83
2023/08/24 08:37:12;;;;;;;9.33;8.53;;;;;;;30.42;nan;99352.97;5040075;28;20411;-82
2023/08/24 08:39:38;;;;;;;10.70;9.27;;;;;;;30.89;nan;99353.03;5045532;28;20189;-83
2023/08/24 08:42:03;;;;;;;10.63;9.83;;;;;;;31.22;nan;99357.84;5046786;28;20219;-83
2023/08/24 08:44:31;;;;;;;7.77;6.93;;;;;;;31.41;nan;99363.97;5044531;28;20404;-83
2023/08/24 08:46:57;;;;;;;8.93;7.67;;;;;;;31.61;nan;99349.16;5047642;28;20634;-83
2023/08/24 08:49:23;;;;;;;7.63;7.03;;;;;;;31.71;nan;99350.19;5047310;28;21029;-82
2023/08/24 08:51:49;;;;;;;7.83;7.20;;;;;;;31.82;nan;99353.91;5047287;28;20288;-82
2023/08/24 08:54:14;;;;;;;6.40;5.90;;;;;;;31.85;nan;99353.41;5045254;28;20475;-83
2023/08/24 08:56:41;;;;;;;8.10;7.40;;;;;;;31.83;nan;99341.97;5044718;28;21058;-83
2023/08/24 08:59:08;;;;;;;7.23;6.50;;;;;;;31.79;nan;99342.72;5044145;28;20217;-83
2023/08/24 09:01:34;;;;;;;6.30;5.80;;;;;;;31.69;nan;99338.72;5041783;28;20444;-83
2023/08/24 09:04:00;;;;;;;6.83;6.33;;;;;;;31.70;nan;99342.25;5043617;28;20478;-82
2023/08/24 09:06:26;;;;;;;7.10;6.50;;;;;;;31.64;nan;99337.81;5040139;28;20443;-83
2023/08/24 09:08:52;;;;;;;6.33;5.70;;;;;;;31.62;nan;99329.06;5043273;28;20480;-83
2023/08/24 09:11:18;;;;;;;6.27;5.70;;;;;;;31.64;nan;99338.63;5037535;28;20213;-83
2023/08/24 09:13:45;;;;;;;7.90;6.37;;;;;;;31.55;nan;99328.41;5036714;28;20460;-83
2023/08/24 09:16:15;;;;;;;8.60;5.80;;;;;;;31.48;nan;99328.53;5037742;28;20453;-83
2023/08/24 09:18:44;;;;;;;6.73;6.20;;;;;;;31.49;nan;99320.16;5037791;28;20472;-83
2023/08/24 09:21:16;;;;;;;7.03;6.27;;;;;;;31.53;nan;99310.44;5040146;28;20452;-83
2023/08/24 09:23:52;;;;;;;8.03;7.23;;;;;;;31.56;nan;99314.56;5039115;28;20882;-84
2023/08/24 09:26:34;;;;;;;7.63;6.93;;;;;;;31.63;nan;99314.44;5041517;28;20471;-83
2023/08/24 09:29:00;;;;;;;7.77;7.13;;;;;;;31.65;nan;99301.44;5039528;28;20730;-83
2023/08/24 09:31:37;;;;;;;6.90;6.40;;;;;;;31.62;nan;99297.34;5039014;28;20448;-83
2023/08/24 09:34:03;;;;;;;7.43;6.80;;;;;;;31.73;nan;99292.88;5039311;28;20442;-83
2023/08/24 09:36:31;;;;;;;6.90;6.40;;;;;;;31.91;nan;99284.53;5038940;28;20458;-83
2023/08/24 09:38:59;;;;;;;7.37;6.77;;;;;;;32.09;nan;99282.69;5036225;28;20455;-84
2023/08/24 09:41:37;;;;;;;6.73;6.10;;;;;;;32.06;nan;99269.59;5041557;28;20516;-83
2023/08/24 09:44:04;;;;;;;6.03;5.63;;;;;;;32.03;nan;99265.50;5038459;28;20456;-83
2023/08/24 09:46:29;;;;;;;7.27;6.40;;;;;;;32.02;nan;99257.56;5040205;28;20474;-83
2023/08/24 09:48:57;;;;;;;8.00;6.07;;;;;;;32.02;nan;99254.84;5035762;28;20487;-83
2023/08/24 09:51:26;;;;;;;8.00;6.03;;;;;;;32.00;nan;99252.41;5040188;28;20208;-83
2023/08/24 09:53:52;;;;;;;7.73;6.43;;;;;;;32.05;nan;99249.75;5042772;28;20485;-83
2023/08/24 09:56:20;;;;;;;7.57;6.87;;;;;;;31.96;nan;99243.91;5046911;28;20459;-82
2023/08/24 09:58:51;;;;;;;8.70;6.33;;;;;;;31.94;nan;99246.03;5051383;28;20452;-82
2023/08/24 10:01:17;;;;;;;5.83;5.33;;;;;;;32.02;nan;99247.53;5033353;28;21490;-81
2023/08/24 10:03:48;;;;;;;16.60;6.30;;;;;;;32.18;nan;99240.44;5032039;28;20451;-82
2023/08/24 10:06:14;;;;;;;9.80;6.77;;;;;;;32.31;nan;99229.22;5030716;28;20585;-82
2023/08/24 10:08:48;;;;;;;9.20;6.60;;;;;;;32.37;nan;99228.22;5029264;28;20582;-82
2023/08/24 10:11:22;;;;;;;13.70;6.10;;;;;;;32.44;nan;99213.66;5030178;28;20259;-83
2023/08/24 10:14:06;;;;;;;7.40;5.47;;;;;;;32.50;nan;99212.69;5032019;28;20521;-82
2023/08/24 10:16:34;;;;;;;6.10;5.50;;;;;;;32.54;nan;99209.22;5030081;28;21298;-82
2023/08/24 10:19:00;;;;;;;6.17;5.67;;;;;;;32.40;nan;99214.13;5033777;28;20468;-82
2023/08/24 10:21:29;;;;;;;6.13;5.60;;;;;;;32.42;nan;99213.06;5028164;28;20460;-81
2023/08/24 10:23:59;;;;;;;7.30;6.20;;;;;;;32.56;nan;99208.94;5031389;28;20484;-82
2023/08/24 10:26:26;;;;;;;7.57;6.50;;;;;;;32.66;nan;99198.22;5034976;28;20463;-82
2023/08/24 10:28:52;;;;;;;6.07;5.47;;;;;;;32.65;nan;99190.28;5031625;28;20600;-82
2023/08/24 10:31:19;;;;;;;10.13;5.23;;;;;;;32.69;nan;99192.25;5029295;28;20447;-82
2023/08/24 10:33:46;;;;;;;6.20;5.53;;;;;;;32.77;nan;99178.22;5026139;28;20460;-81
2023/08/24 10:36:14;;;;;;;6.10;5.60;;;;;;;32.90;nan;99176.22;5029024;28;20592;-81
2023/08/24 10:38:42;;;;;;;7.50;5.60;;;;;;;33.02;nan;99185.88;5022277;28;20968;-81
2023/08/24 10:41:14;;;;;;;6.73;5.37;;;;;;;33.13;nan;99186.81;5029032;28;20439;-82
2023/08/24 10:43:49;;;;;;;8.00;6.30;;;;;;;33.13;nan;99194.97;5029678;28;20994;-82
2023/08/24 10:46:18;;;;;;;6.30;5.70;;;;;;;32.99;nan;99189.09;5032544;28;20269;-82
2023/08/24 10:48:44;;;;;;;5.77;4.70;;;;;;;32.87;nan;99182.16;5027971;28;20475;-82
2023/08/24 10:51:21;;;;;;;6.23;5.00;;;;;;;32.86;nan;99175.06;5027001;28;20465;-82
2023/08/24 10:53:58;;;;;;;5.80;5.23;;;;;;;32.79;nan;99172.53;5026782;28;20245;-82
2023/08/24 10:56:34;;;;;;;6.07;5.20;;;;;;;32.82;nan;99164.69;5030308;28;20468;-81
2023/08/24 10:59:14;;;;;;;6.83;5.00;;;;;;;32.89;nan;99160.94;5021831;28;20457;-82
2023/08/24 11:02:01;;;;;;;5.13;4.73;;;;;;;33.04;nan;99155.72;5023857;28;20593;-82
2023/08/24 11:04:27;;;;;;;5.70;5.20;;;;;;;33.15;nan;99149.28;5022116;28;21027;-82
2023/08/24 11:06:54;;;;;;;5.50;5.10;;;;;;;33.20;nan;99152.06;5028192;28;20471;-82
2023/08/24 11:09:20;;;;;;;5.80;5.20;;;;;;;33.26;nan;99148.31;5029428;28;20479;-82
2023/08/24 11:11:59;;;;;;;5.73;5.30;;;;;;;33.22;nan;99144.47;5031728;28;20478;-82
2023/08/24 11:14:32;;;;;;;5.60;4.90;;;;;;;33.27;nan;99155.41;5031995;28;20456;-82
2023/08/24 11:17:16;;;;;;;5.50;4.90;;;;;;;33.44;nan;99149.84;5031796;28;20510;-81
2023/08/24 11:19:54;;;;;;;5.33;4.97;;;;;;;33.50;nan;99137.91;5033199;28;20477;-82
2023/08/24 11:22:23;;;;;;;6.47;5.00;;;;;;;33.53;nan;99147.50;5036554;28;20460;-82
2023/08/24 11:24:48;;;;;;;6.10;5.50;;;;;;;33.56;nan;99133.34;5033766;28;20449;-82
2023/08/24 11:27:14;;;;;;;5.63;5.13;;;;;;;33.52;nan;99139.56;5030140;28;20530;-82
2023/08/24 11:29:39;;;;;;;6.53;5.23;;;;;;;33.33;nan;99147.28;5030498;28;20355;-82
2023/08/24 11:32:06;;;;;;;5.50;5.10;;;;;;;33.21;nan;99145.53;5033162;28;20462;-81
2023/08/24 11:34:32;;;;;;;6.63;6.03;;;;;;;33.20;nan;99134.91;5033624;28;20208;-82
2023/08/24 11:36:57;;;;;;;6.03;5.53;;;;;;;33.18;nan;99140.59;5031372;28;20463;-82
2023/08/24 11:39:31;;;;;;;5.77;5.17;;;;;;;33.18;nan;99135.16;5031034;28;20289;-81
2023/08/24 11:42:16;;;;;;;5.60;5.10;;;;;;;33.11;nan;99129.13;5011923;28;20198;-81
2023/08/24 11:44:48;;;;;;;5.43;4.93;;;;;;;33.05;nan;99133.69;5031261;28;21387;-81
2023/08/24 11:47:15;;;;;;;5.90;5.40;;;;;;;33.03;nan;99133.13;5026392;28;20517;-81
2023/08/24 11:49:41;;;;;;;6.20;5.60;;;;;;;33.06;nan;99123.63;5025955;28;20472;-82